Time;durP1;ratioP1;P1;durP2;ratioP2;P2;SDS_P1;SDS_P2;PMS_P1;PMS_P2;Temp;Humidity;BMP_temperature;BMP_pressure;BME280_temperature;BME280_humidity;BME280_pressure;Samples;Min_cycle;Max_cycle;Signal;HPM_P1;HPM_P2
2021/01/11 00:01:39;;;;;;;85.10;42.85;;;;;;;1.70;100.00;101813.94;6272159;28;20057;-76
2021/01/11 00:04:40;;;;;;;86.82;42.13;;;;;;;1.70;100.00;101814.78;6272409;28;20041;-76
2021/01/11 00:07:42;;;;;;;85.97;40.92;;;;;;;1.69;100.00;101807.88;6272046;28;20049;-75
2021/01/11 00:10:42;;;;;;;94.05;42.67;;;;;;;1.68;100.00;101811.34;6272206;28;20414;-75
2021/01/11 00:13:44;;;;;;;88.43;42.75;;;;;;;1.68;100.00;101816.53;6272204;28;20059;-77
2021/01/11 00:16:45;;;;;;;92.22;43.35;;;;;;;1.69;100.00;101812.22;6272265;28;20056;-77
2021/01/11 00:19:46;;;;;;;91.85;42.95;;;;;;;1.67;100.00;101801.81;6271745;28;20049;-76
2021/01/11 00:22:47;;;;;;;85.70;40.70;;;;;;;1.64;100.00;101803.56;6271893;28;20045;-76
2021/01/11 00:25:47;;;;;;;83.15;40.95;;;;;;;1.71;100.00;101805.28;6271983;28;20512;-76
2021/01/11 00:28:50;;;;;;;97.30;44.58;;;;;;;1.67;100.00;101811.31;6271385;28;20045;-76
2021/01/11 00:31:51;;;;;;;93.85;42.97;;;;;;;1.66;100.00;101815.66;6272029;28;20049;-76
2021/01/11 00:34:51;;;;;;;96.97;43.08;;;;;;;1.61;100.00;101811.34;6271715;28;20056;-76
2021/01/11 00:37:52;;;;;;;98.35;44.80;;;;;;;1.61;100.00;101801.81;6271521;28;20045;-76
2021/01/11 00:40:53;;;;;;;108.18;44.88;;;;;;;1.60;100.00;101799.25;6271534;28;20080;-77
2021/01/11 00:43:55;;;;;;;106.88;44.90;;;;;;;1.64;100.00;101801.84;6271626;28;20068;-75
2021/01/11 00:46:58;;;;;;;92.22;41.53;;;;;;;1.62;100.00;101803.56;6271448;28;20060;-75
2021/01/11 00:49:59;;;;;;;91.63;42.97;;;;;;;1.63;100.00;101807.00;6271324;28;20045;-75
2021/01/11 00:53:00;;;;;;;94.07;43.45;;;;;;;1.63;100.00;101810.44;6271281;28;20045;-76
2021/01/11 00:56:01;;;;;;;94.18;42.47;;;;;;;1.71;100.00;101810.47;6271396;28;20486;-76
2021/01/11 00:59:03;;;;;;;104.25;45.78;;;;;;;1.64;100.00;101811.34;6271126;28;20072;-76
2021/01/11 01:02:04;;;;;;;91.38;43.95;;;;;;;1.67;100.00;101803.56;6271343;28;20045;-75
2021/01/11 01:05:07;;;;;;;94.70;42.35;;;;;;;1.66;100.00;101801.84;6271560;28;20512;-75
2021/01/11 01:08:07;;;;;;;100.18;43.88;;;;;;;1.60;100.00;101799.25;6270966;28;20045;-76
2021/01/11 01:11:09;;;;;;;92.47;42.33;;;;;;;1.67;100.00;101794.03;6270959;28;20418;-75
2021/01/11 01:14:11;;;;;;;97.13;43.72;;;;;;;1.58;100.00;101799.22;6271065;28;20131;-75
2021/01/11 01:17:12;;;;;;;95.65;43.22;;;;;;;1.54;100.00;101802.69;6271098;28;20052;-76
2021/01/11 01:20:15;;;;;;;98.38;43.95;;;;;;;1.54;100.00;101802.69;6270675;28;20111;-75
2021/01/11 01:23:16;;;;;;;112.57;45.25;;;;;;;1.50;100.00;101794.06;6271044;28;20069;-75
2021/01/11 01:26:17;;;;;;;105.57;46.78;;;;;;;1.52;100.00;101799.22;6270648;28;20049;-75
2021/01/11 01:29:19;;;;;;;101.05;44.40;;;;;;;1.58;100.00;101806.13;6271014;28;20490;-75
2021/01/11 01:32:20;;;;;;;91.60;41.22;;;;;;;1.73;100.00;101783.69;6271053;28;20049;-75
2021/01/11 01:35:20;;;;;;;94.68;42.63;;;;;;;1.59;100.00;101781.94;6270803;28;20056;-75
2021/01/11 01:38:21;;;;;;;94.57;43.55;;;;;;;1.56;100.00;101792.34;6270751;28;20041;-76
2021/01/11 01:41:22;;;;;;;91.97;42.97;;;;;;;1.60;100.00;101789.75;6270466;28;20053;-76
2021/01/11 01:44:24;;;;;;;83.93;40.53;;;;;;;1.57;100.00;101781.97;6270856;28;20144;-75
2021/01/11 01:47:25;;;;;;;92.97;41.90;;;;;;;1.58;100.00;101785.41;6270610;28;20052;-75
2021/01/11 01:50:26;;;;;;;88.03;42.15;;;;;;;1.58;100.00;101778.50;6270642;28;20056;-75
2021/01/11 01:53:27;;;;;;;87.22;41.80;;;;;;;1.61;100.00;101769.88;6270438;28;20049;-75
2021/01/11 01:56:28;;;;;;;94.45;42.78;;;;;;;1.57;100.00;101783.69;6270386;28;20413;-75
2021/01/11 01:59:30;;;;;;;89.03;42.83;;;;;;;1.57;100.00;101784.56;6270368;28;20143;-76
2021/01/11 02:02:31;;;;;;;93.78;44.35;;;;;;;1.62;100.00;101772.47;6270551;28;20045;-75
2021/01/11 02:05:31;;;;;;;89.20;41.33;;;;;;;1.62;100.00;101776.78;6272749;28;20060;-75
2021/01/11 02:08:38;;;;;;;91.65;40.97;;;;;;;1.60;100.00;101770.75;6274946;28;20048;-75
2021/01/11 02:11:43;;;;;;;89.70;41.88;;;;;;;1.65;100.00;101777.66;6275502;28;20052;-77
2021/01/11 02:15:00;;;;;;;87.85;41.35;;;;;;;1.65;100.00;101769.88;6275114;28;20115;-75
2021/01/11 02:18:05;;;;;;;82.93;41.58;;;;;;;1.65;100.00;101756.06;6274823;28;20052;-74
2021/01/11 02:21:14;;;;;;;87.28;41.03;;;;;;;1.68;100.00;101769.88;6274333;28;20051;-74
2021/01/11 02:24:55;;;;;;;95.93;43.17;;;;;;;1.67;100.00;101768.13;6274962;28;20144;-76
2021/01/11 02:27:59;;;;;;;96.80;41.72;;;;;;;1.70;100.00;101759.50;6274908;28;20509;-74
2021/01/11 02:31:03;;;;;;;98.38;43.85;;;;;;;1.62;100.00;101758.66;6274388;28;20182;-76
2021/01/11 02:34:05;;;;;;;103.82;44.70;;;;;;;1.71;100.00;101758.66;6274878;28;20049;-74
2021/01/11 02:37:06;;;;;;;95.47;45.17;;;;;;;1.67;100.00;101762.09;6274411;28;20490;-74
2021/01/11 02:40:09;;;;;;;97.25;44.63;;;;;;;1.66;100.00;101760.38;6274276;28;20505;-75
2021/01/11 02:43:09;;;;;;;94.95;42.90;;;;;;;1.78;100.00;101747.41;6274698;28;20049;-75
2021/01/11 02:46:12;;;;;;;95.63;44.88;;;;;;;1.74;100.00;101753.47;6273532;28;20498;-75
2021/01/11 02:49:23;;;;;;;86.43;43.45;;;;;;;1.70;100.00;101749.16;6274418;28;20095;-75
2021/01/11 02:52:34;;;;;;;96.75;44.78;;;;;;;1.70;100.00;101743.97;6274513;28;20053;-75
2021/01/11 02:55:47;;;;;;;89.18;43.67;;;;;;;1.67;100.00;101736.19;6274383;28;20049;-76
2021/01/11 02:59:03;;;;;;;94.55;42.75;;;;;;;1.73;100.00;101736.19;6273433;28;20048;-76
2021/01/11 03:02:08;;;;;;;90.07;40.88;;;;;;;1.91;99.75;101731.00;6274176;28;20045;-74
2021/01/11 03:05:10;;;;;;;90.72;41.28;;;;;;;1.76;100.00;101729.25;6273933;28;20433;-75
2021/01/11 03:08:11;;;;;;;82.47;41.40;;;;;;;1.83;99.88;101729.28;6273712;28;20048;-75
2021/01/11 03:11:12;;;;;;;91.68;45.78;;;;;;;1.78;99.91;101730.16;6273335;28;20501;-75
2021/01/11 03:14:12;;;;;;;86.20;42.03;;;;;;;1.78;99.60;101732.75;6273954;28;20057;-75
2021/01/11 03:17:14;;;;;;;86.60;43.10;;;;;;;1.77;99.46;101725.84;6272625;28;20071;-74
2021/01/11 03:20:15;;;;;;;89.65;44.42;;;;;;;1.73;100.00;101724.09;6273578;28;20071;-75
2021/01/11 03:23:16;;;;;;;87.78;41.35;;;;;;;1.94;100.00;101712.81;6273470;28;20057;-75
2021/01/11 03:26:23;;;;;;;79.70;41.38;;;;;;;1.84;98.99;101713.72;6273279;28;20402;-75
2021/01/11 03:29:24;;;;;;;83.00;40.97;;;;;;;1.74;100.00;101712.00;6272966;28;20048;-76
2021/01/11 03:32:26;;;;;;;90.88;44.95;;;;;;;1.72;99.74;101704.22;6273729;28;20049;-75
2021/01/11 03:35:28;;;;;;;92.95;43.72;;;;;;;1.74;99.96;101702.50;6273360;28;20053;-76
2021/01/11 03:38:28;;;;;;;84.25;40.90;;;;;;;1.80;99.16;101704.22;6273364;28;20076;-76
2021/01/11 03:41:29;;;;;;;86.10;42.28;;;;;;;1.75;99.60;101693.84;6272766;28;20059;-76
2021/01/11 03:44:30;;;;;;;85.00;39.03;;;;;;;1.74;100.00;101699.06;6272632;28;20091;-76
2021/01/11 03:47:32;;;;;;;86.45;43.65;;;;;;;1.74;100.00;101697.31;6272844;28;20102;-76
2021/01/11 03:50:33;;;;;;;101.93;46.53;;;;;;;1.76;100.00;101697.31;6272261;28;20055;-76
2021/01/11 03:53:33;;;;;;;87.30;42.30;;;;;;;1.75;100.00;101704.22;6272967;28;20049;-76
2021/01/11 03:56:34;;;;;;;82.55;40.50;;;;;;;1.75;99.68;101695.59;6272458;28;20494;-76
2021/01/11 03:59:35;;;;;;;89.93;41.65;;;;;;;1.73;99.91;101698.19;6272451;28;20128;-77
2021/01/11 04:02:37;;;;;;;87.68;42.58;;;;;;;1.76;99.74;101703.34;6272672;28;20056;-76
2021/01/11 04:05:42;;;;;;;105.47;43.95;;;;;;;1.72;99.25;101699.03;6272624;28;20075;-76
2021/01/11 04:08:43;;;;;;;88.38;42.55;;;;;;;1.71;100.00;101693.88;6272047;28;20041;-75
2021/01/11 04:11:44;;;;;;;87.25;40.72;;;;;;;1.80;99.58;101680.91;6272252;28;20490;-75
2021/01/11 04:14:46;;;;;;;82.00;41.47;;;;;;;1.72;99.45;101688.66;6272184;28;20057;-76
2021/01/11 04:17:50;;;;;;;92.07;44.05;;;;;;;1.68;99.71;101693.84;6271890;28;20619;-76
2021/01/11 04:20:51;;;;;;;93.45;43.20;;;;;;;1.75;99.97;101686.09;6271790;28;20071;-75
2021/01/11 04:23:52;;;;;;;85.88;41.83;;;;;;;1.76;99.81;101672.25;6271876;28;20072;-75
2021/01/11 04:26:53;;;;;;;83.82;40.88;;;;;;;1.72;99.35;101673.13;6271385;28;20134;-75
2021/01/11 04:29:54;;;;;;;82.60;39.65;;;;;;;1.77;99.23;101661.06;6270725;28;20075;-75
2021/01/11 04:32:55;;;;;;;85.18;41.17;;;;;;;1.77;99.40;101666.22;6272165;28;20548;-75
2021/01/11 04:35:57;;;;;;;86.80;40.38;;;;;;;1.83;99.32;101651.53;6271502;28;20068;-75
2021/01/11 04:38:57;;;;;;;77.10;39.85;;;;;;;1.84;98.25;101664.47;6270042;28;20052;-76
2021/01/11 04:42:00;;;;;;;82.57;38.05;;;;;;;1.88;98.88;101665.34;6265070;28;20045;-76
2021/01/11 04:45:01;;;;;;;79.40;39.22;;;;;;;1.90;98.51;101663.59;6271449;28;20052;-75
2021/01/11 04:48:03;;;;;;;80.38;39.63;;;;;;;1.78;98.85;101667.09;6271447;28;20505;-76
2021/01/11 04:51:06;;;;;;;81.13;39.30;;;;;;;1.76;98.59;101655.84;6270867;28;20094;-75
2021/01/11 04:54:08;;;;;;;80.60;39.58;;;;;;;1.77;99.04;101648.09;6271453;28;20049;-75
2021/01/11 04:57:14;;;;;;;80.95;38.28;;;;;;;1.88;98.53;101650.66;6271182;28;20571;-75
2021/01/11 05:00:20;;;;;;;83.85;39.15;;;;;;;1.94;98.42;101652.34;6271049;28;20051;-75
2021/01/11 05:03:23;;;;;;;80.22;37.67;;;;;;;1.76;98.33;101653.25;6271419;28;20072;-77
2021/01/11 05:06:24;;;;;;;84.82;39.42;;;;;;;1.77;99.33;101649.78;6271126;28;20049;-75
2021/01/11 05:09:24;;;;;;;86.72;40.40;;;;;;;1.97;98.84;101640.25;6270880;28;20061;-74
2021/01/11 05:12:27;;;;;;;84.25;37.75;;;;;;;1.82;98.62;101642.00;6271401;28;20134;-75
2021/01/11 05:15:30;;;;;;;77.40;38.40;;;;;;;1.88;99.03;101635.09;6270739;28;20049;-74
2021/01/11 05:18:32;;;;;;;82.55;40.90;;;;;;;1.67;99.10;101646.38;6270812;28;20099;-76
2021/01/11 05:21:40;;;;;;;81.10;39.70;;;;;;;1.70;99.67;101633.41;6270478;28;20048;-75
2021/01/11 05:24:42;;;;;;;85.35;41.00;;;;;;;1.74;99.55;101642.06;6271278;28;20641;-75
2021/01/11 05:27:44;;;;;;;77.20;38.53;;;;;;;1.86;98.99;101638.53;6270834;28;20586;-75
2021/01/11 05:30:47;;;;;;;75.95;38.60;;;;;;;1.72;99.48;101633.41;6270492;28;20486;-75
2021/01/11 05:33:53;;;;;;;89.72;39.67;;;;;;;1.66;99.41;101628.25;6270921;28;20049;-74
2021/01/11 05:36:54;;;;;;;84.68;42.03;;;;;;;1.62;99.69;101622.22;6270617;28;20049;-76
2021/01/11 05:40:03;;;;;;;81.68;38.45;;;;;;;1.66;100.00;101610.09;6273453;28;20052;-75
2021/01/11 05:43:04;;;;;;;83.55;40.97;;;;;;;1.63;100.00;101607.53;6275678;28;20405;-77
2021/01/11 05:46:24;;;;;;;84.47;43.22;;;;;;;1.59;100.00;101613.56;6275241;28;20053;-75
2021/01/11 05:49:28;;;;;;;92.47;44.65;;;;;;;1.62;100.00;101616.16;6275293;28;20532;-75
2021/01/11 05:52:31;;;;;;;84.88;40.92;;;;;;;1.60;100.00;101615.31;6275700;28;20091;-74
2021/01/11 05:55:33;;;;;;;95.88;46.08;;;;;;;1.60;100.00;101612.72;6275548;28;20498;-75
2021/01/11 05:58:34;;;;;;;93.00;44.75;;;;;;;1.56;100.00;101609.28;6275245;28;20048;-75
2021/01/11 06:01:37;;;;;;;107.13;47.47;;;;;;;1.49;100.00;101611.00;6275163;28;20044;-75
2021/01/11 06:04:39;;;;;;;93.70;47.42;;;;;;;1.52;100.00;101611.00;6275419;28;20053;-75
2021/01/11 06:07:41;;;;;;;95.95;45.08;;;;;;;1.73;100.00;101609.25;6275034;28;20433;-74
2021/01/11 06:10:43;;;;;;;104.75;47.72;;;;;;;1.47;100.00;101611.88;6274808;28;20410;-75
2021/01/11 06:13:48;;;;;;;95.03;45.88;;;;;;;1.60;100.00;101612.72;6274889;28;20081;-75
2021/01/11 06:16:48;;;;;;;117.82;51.70;;;;;;;1.50;100.00;101614.47;6275111;28;20198;-74
2021/01/11 06:19:50;;;;;;;105.00;49.38;;;;;;;1.39;100.00;101616.22;6274624;28;20044;-75
2021/01/11 06:23:04;;;;;;;107.05;48.83;;;;;;;1.33;100.00;101614.50;6274816;28;20048;-74
2021/01/11 06:26:29;;;;;;;108.65;48.97;;;;;;;1.40;100.00;101615.34;6274755;28;20056;-74
2021/01/11 06:29:32;;;;;;;111.18;48.95;;;;;;;1.38;100.00;101605.00;6274698;28;20053;-75
2021/01/11 06:32:36;;;;;;;112.75;49.38;;;;;;;1.37;100.00;101599.84;6274596;28;20072;-74
2021/01/11 06:35:40;;;;;;;108.43;49.47;;;;;;;1.41;100.00;101592.06;6274790;28;20516;-73
2021/01/11 06:38:41;;;;;;;99.80;46.67;;;;;;;1.40;100.00;101595.47;6273789;28;20049;-73
2021/01/11 06:41:42;;;;;;;105.15;47.35;;;;;;;1.30;100.00;101587.75;6274568;28;20134;-75
2021/01/11 06:44:48;;;;;;;101.18;46.88;;;;;;;1.25;100.00;101574.81;6274229;28;20048;-74
2021/01/11 06:48:02;;;;;;;102.22;47.60;;;;;;;1.37;100.00;101579.13;6274201;28;20052;-74
2021/01/11 06:51:06;;;;;;;102.60;46.13;;;;;;;1.27;100.00;101586.91;6272707;28;20052;-73
2021/01/11 06:54:07;;;;;;;102.80;46.75;;;;;;;1.32;100.00;101573.06;6273583;28;20045;-73
2021/01/11 06:57:12;;;;;;;103.80;47.90;;;;;;;1.20;100.00;101579.13;6273655;28;20049;-73
2021/01/11 07:00:18;;;;;;;105.32;49.22;;;;;;;1.15;100.00;101591.22;6273508;28;20493;-74
2021/01/11 07:03:42;;;;;;;99.78;45.60;;;;;;;1.16;100.00;101595.53;6274218;28;20067;-74
2021/01/11 07:06:44;;;;;;;108.47;47.38;;;;;;;1.01;100.00;101584.31;6273870;28;20045;-74
2021/01/11 07:09:55;;;;;;;111.68;48.17;;;;;;;1.06;100.00;101599.00;6273642;28;20098;-74
2021/01/11 07:13:24;;;;;;;104.68;44.90;;;;;;;1.01;100.00;101599.00;6273470;28;20525;-75
2021/01/11 07:16:38;;;;;;;120.43;48.90;;;;;;;0.97;100.00;101605.03;6273327;28;20418;-74
2021/01/11 07:19:44;;;;;;;117.00;50.53;;;;;;;0.96;100.00;101601.59;6273510;28;20048;-76
2021/01/11 07:22:47;;;;;;;114.88;48.05;;;;;;;0.89;100.00;101602.44;6273504;28;20068;-75
2021/01/11 07:25:49;;;;;;;110.47;47.75;;;;;;;0.96;100.00;101592.97;6273705;28;20052;-75
2021/01/11 07:29:01;;;;;;;116.40;49.88;;;;;;;0.81;100.00;101598.13;6272930;28;20057;-76
2021/01/11 07:32:02;;;;;;;118.75;48.60;;;;;;;0.69;100.00;101593.81;6273738;28;20059;-77
2021/01/11 07:35:04;;;;;;;114.90;47.67;;;;;;;0.74;100.00;101595.53;6273277;28;20045;-76
2021/01/11 07:38:11;;;;;;;112.38;48.13;;;;;;;0.65;100.00;101590.34;6273396;28;20099;-76
2021/01/11 07:41:24;;;;;;;114.75;49.33;;;;;;;0.78;100.00;101596.41;6272906;28;20045;-76
2021/01/11 07:44:26;;;;;;;118.75;49.67;;;;;;;0.57;100.00;101594.66;6272993;28;20045;-76
2021/01/11 07:47:27;;;;;;;120.70;49.83;;;;;;;0.73;100.00;101585.19;6272777;28;20512;-75
2021/01/11 07:50:28;;;;;;;114.53;47.78;;;;;;;0.65;100.00;101581.75;6272794;28;20049;-76
2021/01/11 07:53:37;;;;;;;126.25;49.55;;;;;;;0.61;100.00;101593.81;6272997;28;20049;-76
2021/01/11 07:56:39;;;;;;;115.22;49.17;;;;;;;0.71;100.00;101582.59;6272842;28;20491;-75
2021/01/11 07:59:41;;;;;;;118.35;48.50;;;;;;;0.63;100.00;101578.28;6272398;28;20486;-75
2021/01/11 08:02:44;;;;;;;122.78;50.67;;;;;;;0.72;100.00;101567.94;6272585;28;20056;-76
2021/01/11 08:05:46;;;;;;;122.22;49.45;;;;;;;0.73;100.00;101585.19;6272790;28;20077;-77
2021/01/11 08:08:52;;;;;;;122.93;48.30;;;;;;;0.76;100.00;101555.00;6272094;28;20056;-76
2021/01/11 08:12:11;;;;;;;123.85;50.17;;;;;;;0.62;100.00;101561.03;6272624;28;20060;-75
2021/01/11 08:15:11;;;;;;;115.10;49.00;;;;;;;0.76;100.00;101561.91;6247495;28;20049;-75
2021/01/11 08:18:13;;;;;;;115.68;49.35;;;;;;;0.69;100.00;101552.44;6247626;28;20076;-75
2021/01/11 08:21:16;;;;;;;122.55;49.75;;;;;;;0.67;100.00;101556.72;6270868;28;20071;-75
2021/01/11 08:24:17;;;;;;;110.80;48.17;;;;;;;0.76;100.00;101559.31;6272169;28;20076;-76
2021/01/11 08:27:23;;;;;;;115.78;49.35;;;;;;;0.72;100.00;101561.03;6269982;28;20049;-75
2021/01/11 08:30:25;;;;;;;112.63;48.83;;;;;;;0.71;100.00;101569.66;6271990;28;20086;-76
2021/01/11 08:33:26;;;;;;;107.82;46.75;;;;;;;0.74;100.00;101576.56;6271702;28;20072;-76
2021/01/11 08:36:31;;;;;;;108.10;47.38;;;;;;;0.77;100.00;101581.72;6271984;28;20053;-76
2021/01/11 08:39:32;;;;;;;107.75;45.45;;;;;;;0.70;100.00;101582.59;6271534;28;20052;-77
2021/01/11 08:42:35;;;;;;;104.93;45.95;;;;;;;0.78;100.00;101583.47;6271858;28;20051;-76
2021/01/11 08:45:37;;;;;;;106.47;46.05;;;;;;;0.64;100.00;101578.28;6271763;28;20048;-76
2021/01/11 08:48:38;;;;;;;105.03;47.17;;;;;;;0.71;100.00;101584.31;6270583;28;20122;-76
2021/01/11 08:51:39;;;;;;;105.97;45.90;;;;;;;0.69;100.00;101562.78;6271845;28;20052;-76
2021/01/11 08:54:41;;;;;;;108.90;47.47;;;;;;;0.75;100.00;101560.19;6271004;28;20057;-76
2021/01/11 08:57:55;;;;;;;104.80;46.15;;;;;;;0.80;100.00;101560.19;6270780;28;20045;-76
2021/01/11 09:01:09;;;;;;;96.88;43.03;;;;;;;0.88;100.00;101559.31;6270924;28;20136;-76
2021/01/11 09:04:12;;;;;;;92.85;41.80;;;;;;;0.87;99.98;101556.75;6271454;28;20056;-77
2021/01/11 09:07:12;;;;;;;92.38;42.22;;;;;;;0.87;99.10;101557.59;6270863;28;20125;-77
2021/01/11 09:10:22;;;;;;;90.68;40.70;;;;;;;0.92;99.48;101555.00;6266720;28;20049;-74
2021/01/11 09:13:25;;;;;;;87.72;41.25;;;;;;;0.79;99.04;101553.28;6270166;28;20052;-74
2021/01/11 09:16:32;;;;;;;90.68;41.05;;;;;;;0.75;99.88;101555.88;6270951;28;20053;-75
2021/01/11 09:19:33;;;;;;;93.05;42.72;;;;;;;0.78;99.77;101544.66;6245546;28;20560;-75
2021/01/11 09:22:36;;;;;;;83.60;40.10;;;;;;;0.72;100.00;101555.84;6246452;28;20049;-76
2021/01/11 09:25:39;;;;;;;86.43;40.67;;;;;;;0.78;99.47;101567.09;6251239;28;20099;-77
2021/01/11 09:28:39;;;;;;;81.95;38.28;;;;;;;0.80;99.26;101557.59;6269763;28;20067;-76
2021/01/11 09:31:41;;;;;;;82.00;39.28;;;;;;;0.78;98.80;101556.75;6270276;28;20056;-70
2021/01/11 09:34:42;;;;;;;88.00;39.35;;;;;;;0.88;98.85;101553.28;6270925;28;20048;-71
2021/01/11 09:37:44;;;;;;;83.53;39.25;;;;;;;0.96;98.94;101542.06;6270406;28;20059;-70
2021/01/11 09:40:45;;;;;;;95.82;41.53;;;;;;;0.89;98.33;101534.31;6270196;28;20383;-70
2021/01/11 09:43:46;;;;;;;103.22;42.10;;;;;;;0.92;98.53;101526.56;6270243;28;20056;-70
2021/01/11 09:46:49;;;;;;;84.30;38.45;;;;;;;1.16;98.21;101529.09;6270373;28;20052;-70
2021/01/11 09:49:50;;;;;;;90.70;40.63;;;;;;;1.00;98.06;101535.16;6269600;28;20053;-70
2021/01/11 09:52:54;;;;;;;83.85;39.25;;;;;;;1.03;98.84;101529.97;6268474;28;20067;-70
2021/01/11 09:55:55;;;;;;;94.75;41.08;;;;;;;1.07;98.26;101523.94;6270270;28;20091;-69
2021/01/11 09:58:56;;;;;;;81.20;36.80;;;;;;;0.96;97.90;101523.94;6269721;28;20052;-69
2021/01/11 10:01:57;;;;;;;81.28;36.58;;;;;;;1.09;97.41;101519.63;6270861;28;20386;-70
2021/01/11 10:04:58;;;;;;;76.18;35.53;;;;;;;0.97;98.20;101520.50;6270380;28;20052;-74
2021/01/11 10:07:59;;;;;;;77.03;35.67;;;;;;;0.99;97.25;101531.69;6270115;28;20044;-74
2021/01/11 10:11:04;;;;;;;79.25;35.88;;;;;;;0.97;98.42;101517.06;6269728;28;20053;-74
2021/01/11 10:14:06;;;;;;;82.82;37.70;;;;;;;1.05;98.48;101512.72;6270008;28;20072;-73
2021/01/11 10:17:07;;;;;;;85.57;34.40;;;;;;;0.99;98.33;101515.31;6270306;28;20110;-74
2021/01/11 10:20:10;;;;;;;79.72;37.10;;;;;;;1.15;97.46;101514.44;6269371;28;20494;-74
2021/01/11 10:23:11;;;;;;;81.95;35.05;;;;;;;1.09;98.14;101500.63;6270662;28;20080;-80
2021/01/11 10:26:17;;;;;;;73.20;34.13;;;;;;;1.07;98.33;101508.41;6271152;28;20157;-74
2021/01/11 10:29:20;;;;;;;69.43;34.53;;;;;;;1.17;98.48;101501.47;6274440;28;20045;-75
2021/01/11 10:32:21;;;;;;;79.90;35.38;;;;;;;1.13;98.24;101491.97;6274677;28;20059;-73
2021/01/11 10:35:22;;;;;;;74.18;32.67;;;;;;;1.15;97.73;101488.53;6275041;28;20494;-76
2021/01/11 10:38:23;;;;;;;65.72;32.20;;;;;;;1.32;97.93;101485.91;6271935;28;20053;-75
2021/01/11 10:41:24;;;;;;;70.50;31.50;;;;;;;1.43;97.18;101475.50;6273080;28;20136;-75
2021/01/11 10:44:26;;;;;;;73.07;32.28;;;;;;;1.37;96.96;101468.63;6273995;28;20053;-71
2021/01/11 10:47:27;;;;;;;68.32;32.00;;;;;;;1.39;97.61;101482.41;6274026;28;20103;-70
2021/01/11 10:50:28;;;;;;;66.03;31.30;;;;;;;1.32;96.73;101474.66;6272758;28;20045;-69
2021/01/11 10:53:29;;;;;;;61.20;30.80;;;;;;;1.42;97.23;101460.84;6272250;28;20045;-71
2021/01/11 10:56:31;;;;;;;68.28;30.88;;;;;;;1.44;96.77;101464.25;6266857;28;20041;-69
2021/01/11 10:59:32;;;;;;;58.05;28.80;;;;;;;1.44;96.30;101447.00;6271592;28;20091;-68
2021/01/11 11:02:33;;;;;;;71.68;30.98;;;;;;;1.37;97.17;101460.84;6274222;28;20449;-68
2021/01/11 11:05:34;;;;;;;63.03;28.88;;;;;;;1.51;96.56;101448.72;6273780;28;20088;-69
2021/01/11 11:08:35;;;;;;;70.50;30.15;;;;;;;1.39;97.29;101440.97;6273579;28;20048;-71
2021/01/11 11:11:36;;;;;;;62.75;30.33;;;;;;;1.51;96.39;101443.53;6273550;28;20056;-71
2021/01/11 11:14:37;;;;;;;63.55;29.40;;;;;;;1.39;97.20;101443.56;6273532;28;20410;-69
2021/01/11 11:17:38;;;;;;;62.33;29.75;;;;;;;1.53;97.33;101430.56;6273530;28;20052;-71
2021/01/11 11:20:39;;;;;;;58.80;29.33;;;;;;;1.58;96.81;101425.34;6272538;28;20052;-71
2021/01/11 11:23:41;;;;;;;58.72;29.02;;;;;;;1.56;96.19;101427.09;6273881;28;20099;-72
2021/01/11 11:26:43;;;;;;;58.88;29.85;;;;;;;1.45;96.98;101428.03;6272873;28;20448;-73
2021/01/11 11:29:45;;;;;;;61.80;30.00;;;;;;;1.54;97.09;101403.78;6272981;28;20417;-75
2021/01/11 11:32:46;;;;;;;60.88;29.15;;;;;;;1.50;97.06;101397.78;6273222;28;20068;-73
2021/01/11 11:35:46;;;;;;;61.40;29.05;;;;;;;1.60;97.18;101403.75;6273259;28;20052;-72
2021/01/11 11:38:47;;;;;;;61.35;29.98;;;;;;;1.52;96.95;101402.94;6272105;28;20052;-73
2021/01/11 11:41:49;;;;;;;62.55;30.50;;;;;;;1.49;96.74;101383.09;6272764;28;20395;-75
2021/01/11 11:44:50;;;;;;;60.28;28.98;;;;;;;1.60;97.05;101392.53;6270674;28;20697;-74
2021/01/11 11:47:51;;;;;;;62.42;29.38;;;;;;;1.56;97.60;101386.50;6272417;28;20059;-76
2021/01/11 11:50:51;;;;;;;60.72;28.63;;;;;;;1.56;96.36;101383.94;6272471;28;20060;-76
2021/01/11 11:53:52;;;;;;;56.40;29.15;;;;;;;1.56;97.15;101376.16;6271687;28;20425;-75
2021/01/11 11:56:54;;;;;;;59.65;28.80;;;;;;;1.48;97.79;101375.34;6272473;28;20053;-74
2021/01/11 11:59:55;;;;;;;61.90;29.20;;;;;;;1.50;98.26;101371.03;6269664;28;20052;-75
2021/01/11 12:02:56;;;;;;;55.97;27.52;;;;;;;1.51;97.81;101370.16;6270509;28;20123;-77
2021/01/11 12:05:56;;;;;;;58.22;27.25;;;;;;;1.52;97.61;101369.28;6269515;28;20049;-76
2021/01/11 12:08:57;;;;;;;56.33;28.33;;;;;;;1.51;97.93;101363.22;6271486;28;20041;-76
2021/01/11 12:12:00;;;;;;;59.83;28.33;;;;;;;1.53;98.36;101347.66;6272157;28;20049;-75
2021/01/11 12:15:02;;;;;;;60.08;28.33;;;;;;;1.58;98.34;101337.28;6272255;28;20060;-76
2021/01/11 12:18:03;;;;;;;59.08;29.15;;;;;;;1.51;98.35;101339.91;6272274;28;20095;-76
2021/01/11 12:21:04;;;;;;;62.90;30.15;;;;;;;1.46;99.27;101340.84;6271665;28;20049;-75
2021/01/11 12:24:06;;;;;;;64.00;28.98;;;;;;;1.50;98.67;101337.34;6272155;28;20053;-75
2021/01/11 12:27:08;;;;;;;60.33;28.20;;;;;;;1.52;99.23;101335.59;6271150;28;20134;-75
2021/01/11 12:30:09;;;;;;;60.85;28.45;;;;;;;1.63;98.93;101330.34;6271452;28;20067;-75
2021/01/11 12:33:10;;;;;;;61.10;27.23;;;;;;;1.55;99.29;101317.47;6270283;28;20490;-76
2021/01/11 12:36:11;;;;;;;57.17;27.77;;;;;;;1.49;99.32;101302.78;6270314;28;20041;-75
2021/01/11 12:39:13;;;;;;;56.10;27.75;;;;;;;1.67;98.81;101298.34;6269555;28;20131;-75
2021/01/11 12:42:15;;;;;;;53.60;26.88;;;;;;;1.62;98.90;101293.22;6271079;28;20497;-75
2021/01/11 12:45:16;;;;;;;59.92;27.42;;;;;;;1.59;99.07;101284.59;6269864;28;20588;-74
2021/01/11 12:48:17;;;;;;;52.08;27.45;;;;;;;1.67;99.69;101291.44;6266929;28;20087;-74
2021/01/11 12:51:20;;;;;;;50.08;25.75;;;;;;;1.77;98.83;101276.69;6268255;28;20044;-74
2021/01/11 12:54:20;;;;;;;53.00;25.73;;;;;;;1.71;98.83;101271.56;6271014;28;20075;-75
2021/01/11 12:57:22;;;;;;;54.00;25.65;;;;;;;1.69;99.55;101263.81;6270891;28;20128;-76
2021/01/11 13:00:23;;;;;;;59.83;27.23;;;;;;;1.62;99.84;101249.19;6270207;28;20037;-75
2021/01/11 13:03:24;;;;;;;52.95;25.98;;;;;;;1.66;99.52;101250.88;6271178;28;20044;-75
2021/01/11 13:06:27;;;;;;;53.90;25.70;;;;;;;1.73;98.74;101242.19;6270871;28;20056;-74
2021/01/11 13:09:28;;;;;;;45.70;24.13;;;;;;;1.85;99.63;101233.41;6270458;28;20057;-75
2021/01/11 13:12:30;;;;;;;46.05;23.95;;;;;;;1.77;99.12;101232.63;6271136;28;20653;-75
2021/01/11 13:15:31;;;;;;;46.53;24.10;;;;;;;1.77;99.65;101227.44;6271256;28;20090;-75
2021/01/11 13:18:32;;;;;;;56.47;25.65;;;;;;;1.62;99.45;101225.00;6270875;28;20429;-75
2021/01/11 13:21:33;;;;;;;55.42;26.73;;;;;;;1.70;99.32;101226.66;6270427;28;20077;-74
2021/01/11 13:24:34;;;;;;;51.50;24.90;;;;;;;1.66;99.70;101216.34;6270992;28;20509;-75
2021/01/11 13:27:36;;;;;;;57.63;25.13;;;;;;;1.67;100.00;101220.63;6270624;28;20053;-74
2021/01/11 13:30:40;;;;;;;48.42;23.65;;;;;;;1.74;99.71;101228.34;6270820;28;20056;-75
2021/01/11 13:33:41;;;;;;;49.65;24.55;;;;;;;1.75;99.34;101217.09;6270818;28;20482;-75
2021/01/11 13:36:42;;;;;;;44.25;22.85;;;;;;;1.75;99.06;101216.25;6270984;28;20052;-75
2021/01/11 13:39:43;;;;;;;57.25;24.30;;;;;;;1.62;99.17;101235.38;6270041;28;20044;-75
2021/01/11 13:42:46;;;;;;;42.58;22.55;;;;;;;1.69;99.02;101222.34;6271258;28;20195;-76
2021/01/11 13:45:47;;;;;;;45.80;23.63;;;;;;;1.65;99.36;101212.91;6270587;28;20490;-76
2021/01/11 13:48:48;;;;;;;43.63;22.35;;;;;;;1.78;98.84;101214.50;6268812;28;20045;-74
2021/01/11 13:51:52;;;;;;;46.55;22.55;;;;;;;1.75;98.75;101213.66;6270600;28;20186;-75
2021/01/11 13:54:53;;;;;;;41.55;21.85;;;;;;;1.76;98.72;101207.59;6270410;28;20048;-76